Ewing, MO

5:58 AM CST on March 01, 2015 (GMT -0600)
LIVE WEATHER | Change Station
CLOSE
Current Station
Personal Weather Station
Location: Quincy, IL
Elevation: 620 ft
Nearby Weather Stations
Active Advisory: Winter Weather Advisory Active Notice: Local Storm Report

Elev 620 ft 40.00 °N, 91.38 °W | Updated 8 seconds ago

Overcast
Overcast
22.6 °F
Feels Like 23 °F
N
0.0
Wind Variable Wind from ENE
Gusts 0.0 mph

Today
High -- | Low -- °F
--% Chance of Precip.
Yesterday
High -- | Low -- °F
Precip. -- in
6:40 AM 5:58 PM
Waxing Gibbous, 84% visible
Pressure 30.36 in
Visibility 5.0 miles
Clouds Scattered Clouds 3100 ft
Scattered Clouds 3900 ft
Overcast 5500 ft
Windchill 23 °F
Dew Point 14 °F
Humidity 70%
Rainfall 0.00 in
Snow Depth Not available.
UV 0 out of 12
Pollen .50 out of 12
Air Quality Not available.
Flu Activity Not available.
METAR KHAE 011155Z AUTO 00000KT 5SM -SN SCT031 SCT039 OVC055 M05/M06 A3036 RMK AO2

More Conditions Fewer Conditions

Pressure 30.36 in
Visibility 5.0 miles
Clouds Scattered Clouds 3100 ft
Scattered Clouds 3900 ft
Overcast 5500 ft
Windchill 23 °F
Dew Point 14 °F
Humidity 70%
Rainfall 0.00 in
Snow Depth Not available.
UV 0 out of 12
Pollen .50 out of 12
Air Quality Not available.
Flu Activity Not available.
METAR KHAE 011155Z AUTO 00000KT 5SM -SN SCT031 SCT039 OVC055 M05/M06 A3036 RMK AO2

More Conditions Fewer Conditions

10-Day Weather Forecast

Almanac

Astronomy

Mar. 01, 2015 Rise Set
Actual Time
Civil Twilight
Nautical Twilight
Astronomical Twilight
Moon
Length of Visible Light
Length of Day
Tomorrow will be .
, % of the Moon is Illuminated

Today's Extremes

State Highs State Lows

Community

WunderPhotos

Upload Photos

1,801,365 photos uploaded!

WunderBlogs® & News

Nearby

Air Quality

  Air Quality AQ Index Pollutant
Not available.

Snow Depth

Station Depth Elevation

Earthquake Activity

City Distance Mag. Time & Date
Minimum magnitude displayed is 2.5.

Coastal Water Temperatures

Place Temperature

Nearby Weather Stations

Winter Weather Advisory
Statement as of 4:25 AM CST on March 01, 2015

... Winter Weather Advisory remains in effect until 6 PM CST this
evening...

* timing... snow will gradually diminish today.

* Accumulations... 2 to 6 inches of snow.

* Winds... west 5 mph or less.

* Impacts... the wintry precipitation will result in hazardous
travel conditions... especially on bridges... overpasses... and
untreated roads. Parking lots and sidewalks will become
slippery as well.

Precautionary/preparedness actions...

A Winter Weather Advisory means that less than 6 inches of snow is
expected across the advisory area. Slippery roads can be
expected... so motorists should plan for a slower than normal
trip. Be especially alert when approaching bridges... overpasses... and
curves.